sensor_id;sensor_type;location;lat;lon;timestamp;pressure;altitude;pressure_sealevel;temperature;humidity
9905;BME280;4991;43.566;27.820;2023-11-19T00:01:43;97848.22;;;-0.18;53.23
9905;BME280;4991;43.566;27.820;2023-11-19T00:04:22;97831.22;;;0.09;53.19
9905;BME280;4991;43.566;27.820;2023-11-19T00:06:51;97802.66;;;-0.28;52.82
9905;BME280;4991;43.566;27.820;2023-11-19T00:09:30;97892.31;;;0.22;52.79
9905;BME280;4991;43.566;27.820;2023-11-19T00:12:06;97832.13;;;-0.23;50.81
9905;BME280;4991;43.566;27.820;2023-11-19T00:14:52;97836.47;;;-0.12;47.95
9905;BME280;4991;43.566;27.820;2023-11-19T00:21:12;97908.16;;;0.23;47.68
9905;BME280;4991;43.566;27.820;2023-11-19T00:24:09;97832.47;;;-0.09;47.60
9905;BME280;4991;43.566;27.820;2023-11-19T00:31:09;97890.31;;;-0.03;47.42
9905;BME280;4991;43.566;27.820;2023-11-19T00:34:04;97926.09;;;0.28;47.46
9905;BME280;4991;43.566;27.820;2023-11-19T00:37:07;97884.25;;;0.12;47.47
9905;BME280;4991;43.566;27.820;2023-11-19T00:40:30;97893.34;;;0.11;47.28
9905;BME280;4991;43.566;27.820;2023-11-19T00:43:36;97900.81;;;0.09;47.40
9905;BME280;4991;43.566;27.820;2023-11-19T00:46:37;97910.78;;;0.13;47.29
9905;BME280;4991;43.566;27.820;2023-11-19T00:52:30;97926.56;;;0.15;47.29
9905;BME280;4991;43.566;27.820;2023-11-19T00:55:01;97931.44;;;0.23;47.49
9905;BME280;4991;43.566;27.820;2023-11-19T00:57:26;97930.28;;;0.14;47.46
9905;BME280;4991;43.566;27.820;2023-11-19T00:59:55;97960.13;;;0.32;47.50
9905;BME280;4991;43.566;27.820;2023-11-19T01:02:21;97940.25;;;0.18;47.56
9905;BME280;4991;43.566;27.820;2023-11-19T01:04:50;97925.50;;;0.16;47.50
9905;BME280;4991;43.566;27.820;2023-11-19T01:07:27;97940.28;;;0.23;47.44
9905;BME280;4991;43.566;27.820;2023-11-19T01:09:55;97972.47;;;0.33;47.48
9905;BME280;4991;43.566;27.820;2023-11-19T01:12:21;97981.50;;;0.27;47.55
9905;BME280;4991;43.566;27.820;2023-11-19T01:14:53;97963.78;;;0.16;47.51
9905;BME280;4991;43.566;27.820;2023-11-19T01:17:20;97969.75;;;0.28;47.56
9905;BME280;4991;43.566;27.820;2023-11-19T01:19:46;97983.41;;;0.32;47.68
9905;BME280;4991;43.566;27.820;2023-11-19T01:22:14;97970.47;;;0.19;47.69
9905;BME280;4991;43.566;27.820;2023-11-19T01:24:39;97977.97;;;0.17;47.70
9905;BME280;4991;43.566;27.820;2023-11-19T01:27:07;97963.53;;;0.18;47.70
9905;BME280;4991;43.566;27.820;2023-11-19T01:29:33;97960.53;;;0.14;47.66
9905;BME280;4991;43.566;27.820;2023-11-19T01:32:05;97978.25;;;0.20;47.78
9905;BME280;4991;43.566;27.820;2023-11-19T01:34:36;97996.25;;;0.25;47.66
9905;BME280;4991;43.566;27.820;2023-11-19T01:37:02;97973.63;;;0.11;47.71
9905;BME280;4991;43.566;27.820;2023-11-19T01:39:28;97991.06;;;0.13;47.68
9905;BME280;4991;43.566;27.820;2023-11-19T01:41:54;97987.31;;;0.14;47.76
9905;BME280;4991;43.566;27.820;2023-11-19T01:44:22;97980.31;;;0.08;47.78
9905;BME280;4991;43.566;27.820;2023-11-19T01:46:48;97990.50;;;0.11;47.86
9905;BME280;4991;43.566;27.820;2023-11-19T01:49:17;97972.81;;;0.10;47.68
9905;BME280;4991;43.566;27.820;2023-11-19T01:51:44;97989.94;;;0.09;47.72
9905;BME280;4991;43.566;27.820;2023-11-19T01:54:10;97996.91;;;0.10;47.57
9905;BME280;4991;43.566;27.820;2023-11-19T01:56:40;97993.75;;;0.13;47.50
9905;BME280;4991;43.566;27.820;2023-11-19T01:59:12;98011.09;;;0.11;47.57
9905;BME280;4991;43.566;27.820;2023-11-19T02:01:54;98017.28;;;0.11;47.63
9905;BME280;4991;43.566;27.820;2023-11-19T02:04:20;98021.03;;;0.15;47.56
9905;BME280;4991;43.566;27.820;2023-11-19T02:06:51;98015.13;;;0.08;47.65
9905;BME280;4991;43.566;27.820;2023-11-19T02:09:19;98030.63;;;0.06;47.66
9905;BME280;4991;43.566;27.820;2023-11-19T02:11:46;98038.47;;;0.18;47.68
9905;BME280;4991;43.566;27.820;2023-11-19T02:14:22;98021.78;;;0.06;47.68
9905;BME280;4991;43.566;27.820;2023-11-19T02:16:49;98008.66;;;0.04;47.67
9905;BME280;4991;43.566;27.820;2023-11-19T02:19:15;98020.44;;;0.03;47.71
9905;BME280;4991;43.566;27.820;2023-11-19T02:21:40;98024.44;;;0.06;47.80
9905;BME280;4991;43.566;27.820;2023-11-19T02:24:09;98054.78;;;0.16;47.89
9905;BME280;4991;43.566;27.820;2023-11-19T02:26:52;98052.34;;;0.10;47.87
9905;BME280;4991;43.566;27.820;2023-11-19T02:29:21;98055.84;;;0.15;47.81
9905;BME280;4991;43.566;27.820;2023-11-19T02:31:48;98039.47;;;0.07;47.93
9905;BME280;4991;43.566;27.820;2023-11-19T02:34:14;98052.94;;;0.22;47.94
9905;BME280;4991;43.566;27.820;2023-11-19T02:36:40;98043.47;;;0.09;48.16
9905;BME280;4991;43.566;27.820;2023-11-19T02:39:08;98064.72;;;0.21;48.23
9905;BME280;4991;43.566;27.820;2023-11-19T02:41:38;98081.66;;;0.26;48.33
9905;BME280;4991;43.566;27.820;2023-11-19T02:44:10;98055.59;;;0.17;48.46
9905;BME280;4991;43.566;27.820;2023-11-19T02:46:37;98032.81;;;0.14;48.46
9905;BME280;4991;43.566;27.820;2023-11-19T02:49:09;98047.84;;;0.20;48.48
9905;BME280;4991;43.566;27.820;2023-11-19T02:51:35;98084.28;;;0.21;48.71
9905;BME280;4991;43.566;27.820;2023-11-19T02:54:03;98066.53;;;0.15;48.86
9905;BME280;4991;43.566;27.820;2023-11-19T02:56:31;98068.22;;;0.21;49.06
9905;BME280;4991;43.566;27.820;2023-11-19T02:59:01;98062.00;;;0.16;49.29
9905;BME280;4991;43.566;27.820;2023-11-19T03:01:35;98045.69;;;0.17;49.33
9905;BME280;4991;43.566;27.820;2023-11-19T03:04:01;98118.38;;;0.31;49.65
9905;BME280;4991;43.566;27.820;2023-11-19T03:06:29;98082.44;;;0.27;49.88
9905;BME280;4991;43.566;27.820;2023-11-19T03:09:15;98082.44;;;0.27;50.22
9905;BME280;4991;43.566;27.820;2023-11-19T03:11:43;98086.16;;;0.21;50.39
9905;BME280;4991;43.566;27.820;2023-11-19T03:14:08;98094.38;;;0.14;50.75
9905;BME280;4991;43.566;27.820;2023-11-19T03:16:40;98103.63;;;0.28;50.95
9905;BME280;4991;43.566;27.820;2023-11-19T03:19:05;98085.41;;;0.30;51.41
9905;BME280;4991;43.566;27.820;2023-11-19T03:21:31;98104.50;;;0.39;51.39
9905;BME280;4991;43.566;27.820;2023-11-19T03:23:57;98087.16;;;0.15;51.85
9905;BME280;4991;43.566;27.820;2023-11-19T03:26:27;98104.69;;;0.27;52.16
9905;BME280;4991;43.566;27.820;2023-11-19T03:28:53;98067.00;;;0.07;52.45
9905;BME280;4991;43.566;27.820;2023-11-19T03:31:20;98117.53;;;0.30;53.00
9905;BME280;4991;43.566;27.820;2023-11-19T03:33:46;98091.75;;;0.19;53.29
9905;BME280;4991;43.566;27.820;2023-11-19T03:36:12;98114.63;;;0.32;53.64
9905;BME280;4991;43.566;27.820;2023-11-19T03:38:38;98109.88;;;0.12;53.97
9905;BME280;4991;43.566;27.820;2023-11-19T03:41:13;98101.28;;;0.37;54.54
9905;BME280;4991;43.566;27.820;2023-11-19T03:43:40;98087.63;;;0.38;54.91
9905;BME280;4991;43.566;27.820;2023-11-19T03:46:26;98152.66;;;0.34;55.26
9905;BME280;4991;43.566;27.820;2023-11-19T03:48:52;98105.03;;;0.36;55.85
9905;BME280;4991;43.566;27.820;2023-11-19T03:51:18;98110.19;;;0.16;56.15
9905;BME280;4991;43.566;27.820;2023-11-19T03:53:47;98086.72;;;0.23;56.41
9905;BME280;4991;43.566;27.820;2023-11-19T03:56:13;98095.19;;;0.15;57.04
9905;BME280;4991;43.566;27.820;2023-11-19T03:58:39;98099.81;;;-0.08;57.48
9905;BME280;4991;43.566;27.820;2023-11-19T04:01:15;98051.38;;;-0.06;58.08
9905;BME280;4991;43.566;27.820;2023-11-19T04:03:42;98101.94;;;0.22;58.53
9905;BME280;4991;43.566;27.820;2023-11-19T04:06:07;98122.22;;;0.40;58.90
9905;BME280;4991;43.566;27.820;2023-11-19T04:08:33;98121.34;;;0.08;59.41
9905;BME280;4991;43.566;27.820;2023-11-19T04:11:00;98154.81;;;0.37;60.01
9905;BME280;4991;43.566;27.820;2023-11-19T04:13:26;98119.50;;;0.08;60.35
9905;BME280;4991;43.566;27.820;2023-11-19T04:15:52;98127.53;;;0.08;61.06
9905;BME280;4991;43.566;27.820;2023-11-19T04:18:17;98119.00;;;0.11;61.58
9905;BME280;4991;43.566;27.820;2023-11-19T04:20:44;98068.41;;;-0.17;62.05
9905;BME280;4991;43.566;27.820;2023-11-19T04:23:09;98119.44;;;0.03;62.67
9905;BME280;4991;43.566;27.820;2023-11-19T04:25:36;98053.84;;;-0.26;63.46
9905;BME280;4991;43.566;27.820;2023-11-19T04:28:02;98185.09;;;0.37;63.81
9905;BME280;4991;43.566;27.820;2023-11-19T04:30:29;98135.81;;;0.07;64.57
9905;BME280;4991;43.566;27.820;2023-11-19T04:32:57;98184.53;;;0.35;65.63
9905;BME280;4991;43.566;27.820;2023-11-19T04:35:23;98123.06;;;-0.08;66.40
9905;BME280;4991;43.566;27.820;2023-11-19T04:37:48;98193.38;;;0.36;67.69
9905;BME280;4991;43.566;27.820;2023-11-19T04:40:14;98166.19;;;0.22;68.92
9905;BME280;4991;43.566;27.820;2023-11-19T04:42:40;98169.94;;;0.21;69.96
9905;BME280;4991;43.566;27.820;2023-11-19T04:45:10;98122.69;;;-0.17;71.14
9905;BME280;4991;43.566;27.820;2023-11-19T04:47:36;98168.13;;;0.00;72.38
9905;BME280;4991;43.566;27.820;2023-11-19T04:50:02;98146.56;;;-0.15;74.58
9905;BME280;4991;43.566;27.820;2023-11-19T04:52:33;98231.69;;;0.36;76.78
9905;BME280;4991;43.566;27.820;2023-11-19T04:55:00;98156.97;;;0.08;78.52
9905;BME280;4991;43.566;27.820;2023-11-19T04:57:25;98175.84;;;-0.04;81.29
9905;BME280;4991;43.566;27.820;2023-11-19T04:59:51;98210.63;;;0.18;90.60
9905;BME280;4991;43.566;27.820;2023-11-19T05:02:17;98151.84;;;-0.20;94.88
9905;BME280;4991;43.566;27.820;2023-11-19T05:04:43;98145.31;;;-0.29;99.19
9905;BME280;4991;43.566;27.820;2023-11-19T05:07:12;98170.50;;;-0.04;100.00
9905;BME280;4991;43.566;27.820;2023-11-19T05:09:37;98164.09;;;-0.24;100.00
9905;BME280;4991;43.566;27.820;2023-11-19T05:12:05;98236.69;;;0.28;100.00
9905;BME280;4991;43.566;27.820;2023-11-19T05:14:33;98165.66;;;-0.28;100.00
9905;BME280;4991;43.566;27.820;2023-11-19T05:16:59;98159.94;;;-0.15;100.00
9905;BME280;4991;43.566;27.820;2023-11-19T05:19:26;98196.38;;;-0.09;100.00
9905;BME280;4991;43.566;27.820;2023-11-19T05:21:51;98205.50;;;-0.10;100.00
9905;BME280;4991;43.566;27.820;2023-11-19T05:24:19;98206.53;;;-0.11;100.00
9905;BME280;4991;43.566;27.820;2023-11-19T05:26:45;98157.22;;;-0.42;100.00
9905;BME280;4991;43.566;27.820;2023-11-19T05:29:12;98137.88;;;-0.49;100.00
9905;BME280;4991;43.566;27.820;2023-11-19T05:31:38;98251.09;;;0.00;100.00
9905;BME280;4991;43.566;27.820;2023-11-19T05:34:05;98237.94;;;-0.02;100.00
9905;BME280;4991;43.566;27.820;2023-11-19T05:36:31;98233.91;;;-0.04;100.00
9905;BME280;4991;43.566;27.820;2023-11-19T05:38:59;98238.44;;;-0.05;100.00
9905;BME280;4991;43.566;27.820;2023-11-19T05:41:25;98272.66;;;-0.07;100.00
9905;BME280;4991;43.566;27.820;2023-11-19T05:43:51;98185.25;;;-0.44;100.00
9905;BME280;4991;43.566;27.820;2023-11-19T05:46:17;98261.19;;;-0.07;100.00
9905;BME280;4991;43.566;27.820;2023-11-19T05:48:42;98267.56;;;-0.08;100.00
9905;BME280;4991;43.566;27.820;2023-11-19T05:51:08;98293.41;;;0.03;100.00
9905;BME280;4991;43.566;27.820;2023-11-19T05:53:34;98217.84;;;-0.47;100.00
9905;BME280;4991;43.566;27.820;2023-11-19T05:56:00;98213.38;;;-0.42;100.00
9905;BME280;4991;43.566;27.820;2023-11-19T05:58:29;98221.16;;;-0.40;100.00
9905;BME280;4991;43.566;27.820;2023-11-19T06:00:56;98199.13;;;-0.47;100.00
9905;BME280;4991;43.566;27.820;2023-11-19T06:03:23;98327.84;;;0.16;100.00
9905;BME280;4991;43.566;27.820;2023-11-19T06:05:49;98276.22;;;-0.23;100.00
9905;BME280;4991;43.566;27.820;2023-11-19T06:08:16;98314.41;;;0.11;100.00
9905;BME280;4991;43.566;27.820;2023-11-19T06:10:44;98288.91;;;0.09;100.00
9905;BME280;4991;43.566;27.820;2023-11-19T06:13:14;98243.59;;;-0.20;100.00
9905;BME280;4991;43.566;27.820;2023-11-19T06:15:44;98272.25;;;-0.20;100.00
9905;BME280;4991;43.566;27.820;2023-11-19T06:18:10;98210.59;;;-0.30;100.00
9905;BME280;4991;43.566;27.820;2023-11-19T06:20:40;98301.44;;;0.03;100.00
9905;BME280;4991;43.566;27.820;2023-11-19T06:23:06;98227.28;;;-0.78;100.00
9905;BME280;4991;43.566;27.820;2023-11-19T06:25:54;98342.13;;;0.05;100.00
9905;BME280;4991;43.566;27.820;2023-11-19T06:28:19;98261.66;;;-0.32;100.00
9905;BME280;4991;43.566;27.820;2023-11-19T06:30:45;98234.47;;;-0.45;100.00
9905;BME280;4991;43.566;27.820;2023-11-19T06:33:14;98226.03;;;-0.54;100.00
9905;BME280;4991;43.566;27.820;2023-11-19T06:35:45;98207.59;;;-0.72;100.00
9905;BME280;4991;43.566;27.820;2023-11-19T06:38:32;98276.88;;;-0.32;100.00
9905;BME280;4991;43.566;27.820;2023-11-19T06:40:59;98207.94;;;-0.68;100.00
9905;BME280;4991;43.566;27.820;2023-11-19T06:43:24;98244.75;;;-0.54;100.00
9905;BME280;4991;43.566;27.820;2023-11-19T06:45:54;98305.91;;;-0.41;100.00
9905;BME280;4991;43.566;27.820;2023-11-19T06:48:22;98238.69;;;-0.66;100.00
9905;BME280;4991;43.566;27.820;2023-11-19T06:53:42;98317.34;;;-0.29;100.00
9905;BME280;4991;43.566;27.820;2023-11-19T06:56:40;98268.56;;;-0.52;100.00
9905;BME280;4991;43.566;27.820;2023-11-19T06:59:23;98251.16;;;-0.71;100.00
9905;BME280;4991;43.566;27.820;2023-11-19T07:01:51;98244.97;;;-0.77;100.00
9905;BME280;4991;43.566;27.820;2023-11-19T07:04:17;98271.44;;;-0.59;100.00
9905;BME280;4991;43.566;27.820;2023-11-19T07:07:01;98325.38;;;-0.29;100.00
9905;BME280;4991;43.566;27.820;2023-11-19T07:09:43;98334.53;;;-0.41;100.00
9905;BME280;4991;43.566;27.820;2023-11-19T07:12:11;98267.88;;;-0.81;100.00
9905;BME280;4991;43.566;27.820;2023-11-19T07:14:42;98377.69;;;0.00;100.00
9905;BME280;4991;43.566;27.820;2023-11-19T07:17:09;98369.78;;;-0.28;100.00
9905;BME280;4991;43.566;27.820;2023-11-19T07:19:38;98264.53;;;-0.71;100.00
9905;BME280;4991;43.566;27.820;2023-11-19T07:22:05;98386.44;;;-0.04;100.00
9905;BME280;4991;43.566;27.820;2023-11-19T07:24:31;98346.84;;;-0.24;100.00
9905;BME280;4991;43.566;27.820;2023-11-19T07:27:04;98278.63;;;-0.76;100.00
9905;BME280;4991;43.566;27.820;2023-11-19T07:30:05;98382.72;;;-0.03;100.00
9905;BME280;4991;43.566;27.820;2023-11-19T07:32:35;98398.94;;;-0.10;100.00
9905;BME280;4991;43.566;27.820;2023-11-19T07:35:03;98374.31;;;-0.28;100.00
9905;BME280;4991;43.566;27.820;2023-11-19T07:37:30;98409.06;;;-0.12;100.00
9905;BME280;4991;43.566;27.820;2023-11-19T07:40:33;98395.06;;;-0.02;100.00
9905;BME280;4991;43.566;27.820;2023-11-19T07:43:13;98357.78;;;-0.25;100.00
9905;BME280;4991;43.566;27.820;2023-11-19T07:45:46;98391.56;;;-0.19;100.00
9905;BME280;4991;43.566;27.820;2023-11-19T07:48:18;98377.69;;;-0.16;100.00
9905;BME280;4991;43.566;27.820;2023-11-19T07:50:49;98300.03;;;-0.59;100.00
9905;BME280;4991;43.566;27.820;2023-11-19T07:53:20;98414.34;;;0.00;100.00
9905;BME280;4991;43.566;27.820;2023-11-19T07:55:46;98301.09;;;-0.77;100.00
9905;BME280;4991;43.566;27.820;2023-11-19T07:58:12;98343.69;;;-0.37;100.00
9905;BME280;4991;43.566;27.820;2023-11-19T08:00:38;98282.47;;;-0.72;100.00
9905;BME280;4991;43.566;27.820;2023-11-19T08:03:04;98382.81;;;-0.31;100.00
9905;BME280;4991;43.566;27.820;2023-11-19T08:05:31;98311.53;;;-0.59;100.00
9905;BME280;4991;43.566;27.820;2023-11-19T08:08:20;98439.72;;;0.14;100.00
9905;BME280;4991;43.566;27.820;2023-11-19T08:11:05;98406.47;;;-0.07;100.00
9905;BME280;4991;43.566;27.820;2023-11-19T08:13:31;98347.81;;;-0.46;100.00
9905;BME280;4991;43.566;27.820;2023-11-19T08:15:57;98347.03;;;-0.47;100.00
9905;BME280;4991;43.566;27.820;2023-11-19T08:18:24;98451.81;;;0.17;100.00
9905;BME280;4991;43.566;27.820;2023-11-19T08:20:50;98407.94;;;0.01;100.00
9905;BME280;4991;43.566;27.820;2023-11-19T08:23:20;98439.47;;;0.16;100.00
9905;BME280;4991;43.566;27.820;2023-11-19T08:25:46;98517.69;;;0.18;100.00
9905;BME280;4991;43.566;27.820;2023-11-19T08:28:12;98396.13;;;-0.36;100.00
9905;BME280;4991;43.566;27.820;2023-11-19T08:30:39;98446.25;;;-0.15;100.00
9905;BME280;4991;43.566;27.820;2023-11-19T08:33:18;98464.72;;;0.03;100.00
9905;BME280;4991;43.566;27.820;2023-11-19T08:35:58;98450.59;;;-0.09;100.00
9905;BME280;4991;43.566;27.820;2023-11-19T08:38:29;98455.38;;;0.06;100.00
9905;BME280;4991;43.566;27.820;2023-11-19T08:40:55;98406.56;;;-0.35;100.00
9905;BME280;4991;43.566;27.820;2023-11-19T08:43:27;98372.13;;;-0.48;100.00
9905;BME280;4991;43.566;27.820;2023-11-19T08:45:56;98433.97;;;-0.11;100.00
9905;BME280;4991;43.566;27.820;2023-11-19T08:48:25;98448.09;;;0.01;100.00
9905;BME280;4991;43.566;27.820;2023-11-19T08:50:52;98427.25;;;-0.14;100.00
9905;BME280;4991;43.566;27.820;2023-11-19T08:53:18;98425.00;;;-0.05;100.00
9905;BME280;4991;43.566;27.820;2023-11-19T08:55:45;98442.66;;;-0.04;100.00
9905;BME280;4991;43.566;27.820;2023-11-19T08:58:11;98381.06;;;-0.42;100.00
9905;BME280;4991;43.566;27.820;2023-11-19T09:00:37;98481.38;;;0.27;100.00
9905;BME280;4991;43.566;27.820;2023-11-19T09:03:03;98423.69;;;-0.03;100.00
9905;BME280;4991;43.566;27.820;2023-11-19T09:05:30;98456.91;;;0.18;100.00
9905;BME280;4991;43.566;27.820;2023-11-19T09:07:56;98472.31;;;0.28;100.00
9905;BME280;4991;43.566;27.820;2023-11-19T09:10:21;98371.25;;;-0.37;100.00
9905;BME280;4991;43.566;27.820;2023-11-19T09:12:47;98459.53;;;0.13;100.00
9905;BME280;4991;43.566;27.820;2023-11-19T09:15:13;98457.56;;;0.09;100.00
9905;BME280;4991;43.566;27.820;2023-11-19T09:17:39;98484.88;;;0.27;100.00
9905;BME280;4991;43.566;27.820;2023-11-19T09:20:05;98401.47;;;-0.20;100.00
9905;BME280;4991;43.566;27.820;2023-11-19T09:22:32;98407.56;;;-0.24;100.00
9905;BME280;4991;43.566;27.820;2023-11-19T09:24:57;98468.66;;;0.17;100.00
9905;BME280;4991;43.566;27.820;2023-11-19T09:27:25;98416.06;;;-0.27;100.00
9905;BME280;4991;43.566;27.820;2023-11-19T09:29:55;98449.00;;;-0.10;100.00
9905;BME280;4991;43.566;27.820;2023-11-19T09:32:25;98489.19;;;0.28;100.00
9905;BME280;4991;43.566;27.820;2023-11-19T09:37:18;98455.38;;;0.06;100.00
9905;BME280;4991;43.566;27.820;2023-11-19T09:39:44;98408.69;;;-0.20;100.00
9905;BME280;4991;43.566;27.820;2023-11-19T09:42:10;98499.09;;;0.28;100.00
9905;BME280;4991;43.566;27.820;2023-11-19T09:44:41;98409.25;;;-0.18;100.00
9905;BME280;4991;43.566;27.820;2023-11-19T09:47:08;98395.06;;;-0.19;100.00
9905;BME280;4991;43.566;27.820;2023-11-19T09:49:35;98450.56;;;0.24;100.00
9905;BME280;4991;43.566;27.820;2023-11-19T09:52:03;98470.69;;;0.27;100.00
9905;BME280;4991;43.566;27.820;2023-11-19T09:54:31;98432.56;;;0.20;100.00
9905;BME280;4991;43.566;27.820;2023-11-19T09:56:58;98458.41;;;0.47;100.00
9905;BME280;4991;43.566;27.820;2023-11-19T09:59:31;98440.41;;;0.43;100.00
9905;BME280;4991;43.566;27.820;2023-11-19T10:01:59;98391.97;;;0.06;100.00
9905;BME280;4991;43.566;27.820;2023-11-19T10:04:29;98416.91;;;0.28;100.00
9905;BME280;4991;43.566;27.820;2023-11-19T10:06:55;98439.00;;;0.40;100.00
9905;BME280;4991;43.566;27.820;2023-11-19T10:09:20;98411.41;;;0.18;100.00
9905;BME280;4991;43.566;27.820;2023-11-19T10:11:49;98480.47;;;0.54;100.00
9905;BME280;4991;43.566;27.820;2023-11-19T10:14:23;98398.03;;;0.18;100.00
9905;BME280;4991;43.566;27.820;2023-11-19T10:16:51;98432.63;;;0.41;100.00
9905;BME280;4991;43.566;27.820;2023-11-19T10:19:21;98452.16;;;0.63;100.00
9905;BME280;4991;43.566;27.820;2023-11-19T10:21:51;98436.78;;;0.54;100.00
9905;BME280;4991;43.566;27.820;2023-11-19T10:24:55;98420.25;;;0.40;100.00
9905;BME280;4991;43.566;27.820;2023-11-19T10:27:24;98483.75;;;0.78;100.00
9905;BME280;4991;43.566;27.820;2023-11-19T10:29:50;98475.81;;;0.66;100.00
9905;BME280;4991;43.566;27.820;2023-11-19T10:32:15;98473.44;;;0.70;100.00
9905;BME280;4991;43.566;27.820;2023-11-19T10:34:41;98460.53;;;0.67;100.00
9905;BME280;4991;43.566;27.820;2023-11-19T10:37:27;98503.63;;;1.03;100.00
9905;BME280;4991;43.566;27.820;2023-11-19T10:39:55;98529.31;;;0.99;100.00
9905;BME280;4991;43.566;27.820;2023-11-19T10:42:22;98483.16;;;0.76;100.00
9905;BME280;4991;43.566;27.820;2023-11-19T10:44:47;98490.63;;;0.74;100.00
9905;BME280;4991;43.566;27.820;2023-11-19T10:47:14;98441.47;;;0.63;100.00
9905;BME280;4991;43.566;27.820;2023-11-19T10:49:40;98438.84;;;0.68;100.00
9905;BME280;4991;43.566;27.820;2023-11-19T10:52:08;98439.22;;;0.77;100.00
9905;BME280;4991;43.566;27.820;2023-11-19T10:54:34;98480.56;;;1.02;100.00
9905;BME280;4991;43.566;27.820;2023-11-19T10:57:02;98463.09;;;0.78;100.00
9905;BME280;4991;43.566;27.820;2023-11-19T10:59:31;98431.19;;;0.55;100.00
9905;BME280;4991;43.566;27.820;2023-11-19T11:02:02;98447.25;;;0.77;100.00
9905;BME280;4991;43.566;27.820;2023-11-19T11:04:33;98464.53;;;1.07;100.00
9905;BME280;4991;43.566;27.820;2023-11-19T11:07:05;98456.47;;;1.07;100.00
9905;BME280;4991;43.566;27.820;2023-11-19T11:09:39;98522.16;;;1.80;100.00
9905;BME280;4991;43.566;27.820;2023-11-19T11:12:09;98461.25;;;1.54;100.00
9905;BME280;4991;43.566;27.820;2023-11-19T11:14:37;98443.53;;;1.53;100.00
9905;BME280;4991;43.566;27.820;2023-11-19T11:17:04;98538.16;;;2.28;100.00
9905;BME280;4991;43.566;27.820;2023-11-19T11:19:33;98489.47;;;2.19;100.00
9905;BME280;4991;43.566;27.820;2023-11-19T11:22:00;98531.41;;;2.57;100.00
9905;BME280;4991;43.566;27.820;2023-11-19T11:28:00;98549.59;;;2.45;100.00
9905;BME280;4991;43.566;27.820;2023-11-19T11:36:19;98543.91;;;2.41;100.00
9905;BME280;4991;43.566;27.820;2023-11-19T11:38:47;98482.75;;;2.17;100.00
9905;BME280;4991;43.566;27.820;2023-11-19T11:41:21;98518.69;;;2.47;100.00
9905;BME280;4991;43.566;27.820;2023-11-19T11:43:54;98554.84;;;2.67;100.00
9905;BME280;4991;43.566;27.820;2023-11-19T11:49:05;98552.03;;;2.88;100.00
9905;BME280;4991;43.566;27.820;2023-11-19T11:54:40;98550.81;;;3.16;100.00
9905;BME280;4991;43.566;27.820;2023-11-19T11:57:12;98565.34;;;3.15;100.00
9905;BME280;4991;43.566;27.820;2023-11-19T12:02:15;98564.53;;;2.67;100.00
9905;BME280;4991;43.566;27.820;2023-11-19T12:04:41;98570.81;;;2.83;100.00
9905;BME280;4991;43.566;27.820;2023-11-19T12:07:16;98573.97;;;3.12;100.00
9905;BME280;4991;43.566;27.820;2023-11-19T12:09:46;98577.47;;;2.76;100.00
9905;BME280;4991;43.566;27.820;2023-11-19T12:20:02;98518.31;;;1.97;100.00
9905;BME280;4991;43.566;27.820;2023-11-19T12:22:28;98531.06;;;2.12;100.00
9905;BME280;4991;43.566;27.820;2023-11-19T12:24:54;98538.28;;;2.11;100.00
9905;BME280;4991;43.566;27.820;2023-11-19T12:27:21;98551.75;;;2.16;100.00
9905;BME280;4991;43.566;27.820;2023-11-19T12:29:50;98539.63;;;2.09;100.00
9905;BME280;4991;43.566;27.820;2023-11-19T12:32:16;98523.31;;;2.15;100.00
9905;BME280;4991;43.566;27.820;2023-11-19T12:34:41;98570.91;;;2.56;100.00
9905;BME280;4991;43.566;27.820;2023-11-19T12:37:07;98504.97;;;2.12;100.00
9905;BME280;4991;43.566;27.820;2023-11-19T12:39:35;98533.66;;;2.33;100.00
9905;BME280;4991;43.566;27.820;2023-11-19T12:42:02;98533.44;;;2.40;100.00
9905;BME280;4991;43.566;27.820;2023-11-19T12:44:27;98593.66;;;3.27;100.00
9905;BME280;4991;43.566;27.820;2023-11-19T12:49:27;98592.59;;;3.23;100.00
9905;BME280;4991;43.566;27.820;2023-11-19T12:51:52;98572.16;;;2.86;100.00
9905;BME280;4991;43.566;27.820;2023-11-19T12:54:18;98574.78;;;2.76;100.00
9905;BME280;4991;43.566;27.820;2023-11-19T12:56:53;98520.13;;;2.23;100.00
9905;BME280;4991;43.566;27.820;2023-11-19T12:59:19;98510.25;;;1.97;100.00
9905;BME280;4991;43.566;27.820;2023-11-19T13:01:55;98562.91;;;2.30;100.00
9905;BME280;4991;43.566;27.820;2023-11-19T13:04:21;98560.22;;;2.67;100.00
9905;BME280;4991;43.566;27.820;2023-11-19T13:06:46;98574.94;;;3.01;100.00
9905;BME280;4991;43.566;27.820;2023-11-19T13:09:26;98577.03;;;3.40;100.00
9905;BME280;4991;43.566;27.820;2023-11-19T13:11:53;98574.84;;;3.32;100.00
9905;BME280;4991;43.566;27.820;2023-11-19T13:14:20;98569.75;;;3.36;100.00
9905;BME280;4991;43.566;27.820;2023-11-19T13:16:46;98596.16;;;3.44;100.00
9905;BME280;4991;43.566;27.820;2023-11-19T13:19:13;98608.25;;;3.36;100.00
9905;BME280;4991;43.566;27.820;2023-11-19T13:21:39;98580.81;;;2.93;100.00
9905;BME280;4991;43.566;27.820;2023-11-19T13:24:06;98621.53;;;3.06;100.00
9905;BME280;4991;43.566;27.820;2023-11-19T13:26:31;98597.38;;;2.75;100.00
9905;BME280;4991;43.566;27.820;2023-11-19T13:28:57;98582.22;;;2.58;100.00
9905;BME280;4991;43.566;27.820;2023-11-19T13:31:23;98622.75;;;2.89;100.00
9905;BME280;4991;43.566;27.820;2023-11-19T13:33:49;98565.34;;;2.68;100.00
9905;BME280;4991;43.566;27.820;2023-11-19T13:36:14;98595.50;;;2.75;100.00
9905;BME280;4991;43.566;27.820;2023-11-19T13:38:40;98620.88;;;2.89;100.00
9905;BME280;4991;43.566;27.820;2023-11-19T13:41:10;98589.00;;;2.71;100.00
9905;BME280;4991;43.566;27.820;2023-11-19T13:43:37;98573.31;;;2.95;100.00
9905;BME280;4991;43.566;27.820;2023-11-19T13:46:03;98588.19;;;3.12;100.00
9905;BME280;4991;43.566;27.820;2023-11-19T13:48:29;98578.25;;;3.13;100.00
9905;BME280;4991;43.566;27.820;2023-11-19T13:50:55;98578.44;;;2.96;100.00
9905;BME280;4991;43.566;27.820;2023-11-19T13:53:21;98580.63;;;3.04;100.00
9905;BME280;4991;43.566;27.820;2023-11-19T13:55:48;98589.72;;;2.93;100.00
9905;BME280;4991;43.566;27.820;2023-11-19T13:58:13;98599.84;;;2.81;100.00
9905;BME280;4991;43.566;27.820;2023-11-19T14:00:39;98561.16;;;2.50;100.00
9905;BME280;4991;43.566;27.820;2023-11-19T14:03:07;98600.81;;;2.65;100.00
9905;BME280;4991;43.566;27.820;2023-11-19T14:05:33;98587.72;;;2.42;100.00
9905;BME280;4991;43.566;27.820;2023-11-19T14:07:58;98584.47;;;2.40;100.00
9905;BME280;4991;43.566;27.820;2023-11-19T14:10:24;98565.66;;;2.08;100.00